Latest Weather Observations for Nowra

IDN60901

Issued at 5:45 pm EST Friday 25 April 2014 (issued every 10 minutes, with the page automatically refreshed every 10 minutes)

About weather observations | Map of Canberra area stations | Latest observations for Canberra area | Other Formats
Station Details ID: 068072 Name: NOWRA RAN AIR STATION AWS Lat: -34.95 Lon: 150.54 Height: 109.0 m
Data from the previous 72 hours. | See also: Recent months at Nowra
Date/Time
EST
Tmp

°C
App
Tmp
°C
Dew
Point
°C
Rel
Hum
%
Delta-T

°C
Wind Press
QNH
hPa
Press
MSL
hPa
Rain
since
9 am
mm
Dir
 
Spd
km/h
Gust
km/h
Spd
kts
Gust
kts
25/05:30pm 17.4 17.2 13.7 79 2.1 NNE 7 9 4 5 1018.7 - 0.0
25/05:00pm 17.9 17.7 13.6 76 2.4 NNE 7 11 4 6 1018.8 - 0.0
25/04:30pm 18.1 16.7 13.4 74 2.7 NNE 13 17 7 9 1019.0 - 0.0
25/04:00pm 18.3 16.9 13.4 73 2.8 NNE 13 22 7 12 1019.0 - 0.0
25/03:30pm 18.5 16.2 12.9 70 3.2 NE 17 20 9 11 1019.3 - 0.0
25/03:00pm 18.6 16.7 13.0 70 3.2 NE 15 17 8 9 1019.7 1019.6 0.0
25/02:30pm 18.4 16.7 12.6 69 3.3 NNE 13 17 7 9 1019.9 - 0.0
25/02:00pm 18.7 17.0 12.5 67 3.5 E 13 17 7 9 1020.2 - 0.0
25/01:30pm 18.4 17.1 12.4 68 3.4 ENE 11 17 6 9 1020.6 - 0.0
25/01:00pm 18.6 16.9 12.4 67 3.5 E 13 17 7 9 1021.0 - 0.0
25/12:30pm 18.5 16.9 11.6 64 3.8 E 11 15 6 8 1021.4 - 0.0
25/12:00pm 18.7 16.9 11.0 61 4.2 NE 11 17 6 9 1021.9 1021.8 0.0
25/11:30am 19.6 18.9 12.1 62 4.2 ESE 7 13 4 7 1022.3 - 0.0
25/11:00am 18.1 17.4 11.4 65 3.7 S 6 11 3 6 1022.7 - 0.0
25/10:30am 17.1 16.2 10.5 65 3.5 WSW 6 11 3 6 1023.4 - 0.0
25/10:00am 16.2 16.4 10.5 69 3.0 CALM 0 6 0 3 1023.8 - 0.0
25/09:30am 15.5 15.2 10.1 70 2.8 S 2 7 1 4 1024.0 - 0.0
25/09:00am 15.3 12.9 10.1 71 2.7 S 13 17 7 9 1023.7 - 1.8
25/08:30am 15.2 12.0 9.8 70 2.8 S 17 24 9 13 1023.3 - 1.8
25/08:00am 14.9 12.4 9.7 71 2.7 S 13 19 7 10 1023.0 - 1.8
25/07:30am 14.7 13.0 9.9 73 2.5 SSW 9 15 5 8 1022.7 - 1.8
25/07:00am 14.4 12.4 10.0 75 2.3 S 11 15 6 8 1022.2 - 1.8
25/06:30am 14.1 12.1 10.1 77 2.1 S 11 15 6 8 1022.0 - 1.8
25/06:00am 14.6 12.7 10.4 76 2.2 S 11 15 6 8 1021.6 1021.5 1.8
25/05:30am 15.2 13.7 10.6 74 2.4 WSW 9 11 5 6 1021.4 - 1.8
25/05:00am 15.2 14.1 10.8 75 2.3 WSW 7 9 4 5 1021.2 - 1.8
25/04:30am 15.3 13.8 10.5 73 2.5 SSW 9 13 5 7 1020.9 - 1.8
25/04:00am 15.6 13.4 10.8 73 2.6 S 13 17 7 9 1020.7 - 1.8
25/03:30am 15.6 13.5 11.0 74 2.5 S 13 17 7 9 1020.5 - 1.8
25/03:00am 15.8 14.9 11.2 74 2.5 SSW 7 11 4 6 1020.7 1020.6 1.8
25/02:30am 15.9 14.6 11.3 74 2.5 S 9 11 5 6 1020.9 - 1.8
25/02:00am 15.9 15.1 11.7 76 2.3 S 7 11 4 6 1020.9 - 1.8
25/01:30am 15.6 13.8 12.2 80 1.9 S 13 17 7 9 1020.8 - 1.8
25/01:00am 15.6 13.6 12.7 83 1.6 S 15 19 8 10 1020.6 - 1.8
25/12:30am 15.8 14.7 13.1 84 1.5 SSE 11 15 6 8 1020.6 - 1.8
25/12:00am 15.8 14.1 13.5 86 1.3 S 15 19 8 10 1020.2 1020.1 1.8
 
Date/Time
EST
Tmp

°C
App
Tmp
°C
Dew
Point
°C
Rel
Hum
%
Delta-T

°C
Wind Press
QNH
hPa
Press
MSL
hPa
Rain
since
9 am
mm
Dir
 
Spd
km/h
Gust
km/h
Spd
kts
Gust
kts
24/11:30pm 16.0 14.4 13.8 87 1.2 S 15 20 8 11 1020.2 - 1.8
24/11:00pm 16.0 15.0 14.7 92 0.7 S 13 19 7 10 1020.0 - 1.8
24/10:30pm 16.6 14.3 14.2 86 1.4 S 19 24 10 13 1019.9 - 1.8
24/10:00pm 17.1 14.6 14.2 83 1.7 S 20 28 11 15 1019.7 - 1.8
24/09:30pm 17.3 16.0 14.8 85 1.5 SSE 15 20 8 11 1019.2 - 1.8
24/09:00pm 17.1 15.8 14.9 87 1.3 SSE 15 22 8 12 1018.9 1018.8 1.8
24/08:30pm 17.5 16.1 15.5 88 1.2 SSE 17 22 9 12 1018.4 - 1.8
24/08:00pm 17.7 16.9 16.0 90 1.0 SSE 15 20 8 11 1018.1 - 1.8
24/07:53pm 17.7 16.5 16.0 90 1.0 S 17 20 9 11 1017.9 - 1.8
24/07:32pm 18.3 16.1 15.9 86 1.4 S 22 28 12 15 1017.5 - 0.8
24/07:30pm 18.6 15.9 15.5 82 1.8 S 24 28 13 15 1017.4 - 0.0
24/07:00pm 19.7 15.6 13.9 69 3.4 S 28 37 15 20 1016.5 - 0.0
24/06:30pm 20.8 17.1 8.1 44 6.6 WNW 17 22 9 12 1015.3 - 0.0
24/06:00pm 20.6 17.0 8.3 45 6.4 WNW 17 20 9 11 1014.4 1014.2 0.0
24/05:30pm 22.4 18.7 7.8 39 7.7 W 17 28 9 15 1014.0 - 0.0
24/05:00pm 23.3 20.0 8.2 38 8.0 W 15 26 8 14 1013.3 - 0.0
24/04:30pm 24.5 20.7 8.9 37 8.5 W 19 33 10 18 1012.6 - 0.0
24/04:00pm 25.0 20.1 8.5 35 8.9 W 24 35 13 19 1012.0 - 0.0
24/03:30pm 25.8 20.9 8.3 33 9.5 W 24 39 13 21 1011.7 - 0.0
24/03:00pm 25.9 18.8 8.0 32 9.6 W 35 52 19 28 1011.4 1011.3 0.0
24/02:30pm 26.2 20.1 8.2 32 9.7 W 30 48 16 26 1011.1 - 0.0
24/02:00pm 26.1 18.9 7.7 31 9.8 WNW 35 54 19 29 1011.0 - 0.0
24/01:30pm 26.4 19.7 7.4 30 10.1 WNW 32 50 17 27 1010.6 - 0.0
24/01:00pm 26.4 18.4 7.4 30 10.1 WNW 39 59 21 32 1010.6 - 0.0
24/12:30pm 26.1 17.8 6.2 28 10.4 WNW 39 59 21 32 1010.7 - 0.0
24/12:00pm 26.2 18.4 6.8 29 10.2 WNW 37 - 20 - - 1010.9 -
24/11:30am 25.2 18.8 6.9 31 9.6 W 30 50 16 27 1011.7 - 0.0
24/11:26am 24.9 17.8 5.7 29 9.8 W 32 50 17 27 1011.8 - 0.0
24/11:00am 24.6 19.3 6.8 32 9.3 WNW 24 33 13 18 1012.1 - 0.0
24/10:30am 23.1 19.4 8.0 38 8.0 NNW 17 28 9 15 1012.4 - 0.0
24/10:00am 19.8 16.4 7.5 45 6.3 NNW 15 20 8 11 1012.6 - 0.0
24/09:30am 19.9 15.2 5.9 40 7.0 NW 20 26 11 14 1012.7 - 0.0
24/09:00am 19.6 14.9 6.0 41 6.8 NW 20 28 11 15 1012.8 1012.7 0.0
24/08:30am 19.3 14.2 6.1 42 6.6 NW 22 28 12 15 1012.5 - 0.0
24/08:00am 19.1 14.4 6.2 43 6.4 NW 20 30 11 16 1012.2 - 0.0
24/07:30am 18.7 13.8 6.9 46 5.9 NW 22 30 12 16 1011.7 - 0.0
24/07:00am 18.6 14.1 7.1 47 5.8 NW 20 26 11 14 1011.4 - 0.0
24/06:30am 18.2 14.3 7.0 48 5.6 NW 17 24 9 13 1011.6 - 0.0
24/06:00am 18.6 14.3 7.1 47 5.8 NW 19 24 10 13 1011.5 1011.4 0.0
24/05:30am 18.1 14.7 7.5 50 5.4 NW 15 20 8 11 1011.6 - 0.0
24/05:00am 18.3 14.8 7.4 49 5.5 NW 15 19 8 10 1011.5 - 0.0
24/04:30am 17.9 15.3 7.9 52 5.1 NW 11 15 6 8 1011.5 - 0.0
24/04:00am 17.0 14.6 8.7 58 4.3 NW 11 13 6 7 1011.6 - 0.0
24/03:30am 17.3 14.6 9.0 58 4.3 NW 13 15 7 8 1011.6 - 0.0
24/03:00am 16.2 14.6 10.1 67 3.2 NW 9 11 5 6 1011.9 1011.8 0.0
24/02:30am 16.1 14.6 10.6 70 2.9 NW 9 11 5 6 1012.1 - 0.0
24/02:00am 16.1 14.5 10.2 68 3.1 WNW 9 11 5 6 1012.4 - 0.0
24/01:30am 17.6 15.6 10.2 62 4.0 WNW 11 13 6 7 1012.8 - 0.0
24/01:00am 17.8 15.5 10.4 62 4.0 WNW 13 13 7 7 1013.0 - 0.0
24/12:30am 18.5 16.2 10.6 60 4.3 WNW 13 15 7 8 1013.1 - 0.0
24/12:00am 18.1 15.2 11.0 63 3.9 W 17 19 9 10 1013.4 1013.2 0.0
 
Date/Time
EST
Tmp

°C
App
Tmp
°C
Dew
Point
°C
Rel
Hum
%
Delta-T

°C
Wind Press
QNH
hPa
Press
MSL
hPa
Rain
since
9 am
mm
Dir
 
Spd
km/h
Gust
km/h
Spd
kts
Gust
kts
23/11:30pm 15.7 15.2 11.9 78 2.1 NW 6 7 3 4 1013.4 - 0.0
23/11:00pm 17.3 16.1 11.6 69 3.1 WNW 9 13 5 7 1013.6 - 0.0
23/10:30pm 17.8 16.4 12.3 70 3.1 WNW 11 15 6 8 1013.9 - 0.0
23/10:00pm 15.3 16.5 13.7 90 0.9 CALM 0 0 0 0 1014.1 - 0.0
23/09:30pm 16.0 15.8 13.7 86 1.3 NW 7 9 4 5 1014.2 - 0.0
23/09:00pm 16.2 16.2 15.1 93 0.6 NW 9 11 5 6 1014.2 1014.0 0.0
23/08:30pm 15.6 17.2 15.0 96 0.3 CALM 0 0 0 0 1014.4 - 0.0
23/08:00pm 15.6 17.2 14.8 95 0.5 CALM 0 0 0 0 1014.5 - 0.0
23/07:30pm 15.8 17.5 15.2 96 0.3 CALM 0 0 0 0 1014.5 - 0.0
23/07:00pm 14.8 15.4 13.2 90 0.9 NNE 2 9 1 5 1014.5 - 0.0
23/06:30pm 15.6 16.7 13.4 87 1.2 CALM 0 0 0 0 1014.4 - 0.0
23/06:00pm 16.9 18.2 14.0 83 1.7 CALM 0 0 0 0 1014.3 1014.1 0.0
23/05:30pm 19.8 20.8 14.4 71 3.1 NE 2 7 1 4 1014.2 - 0.0
23/05:00pm 21.0 21.1 14.4 66 3.9 NE 7 11 4 6 1014.0 - 0.0
23/04:30pm 22.3 21.0 14.9 63 4.4 NE 15 19 8 10 1013.9 - 0.0
23/04:00pm 23.3 20.9 13.8 55 5.6 NE 19 24 10 13 1013.7 - 0.0
23/03:30pm 24.6 22.0 13.2 49 6.7 NE 19 20 10 11 1013.8 - 0.0
23/03:00pm 25.3 23.0 11.8 43 7.7 ENE 15 20 8 11 1013.9 1013.7 0.0
23/02:30pm 25.8 24.1 10.0 37 8.8 NNE 9 15 5 8 1014.1 - 0.0
23/02:00pm 25.5 24.4 10.5 39 8.4 NE 7 15 4 8 1014.3 - 0.0
23/01:30pm 25.1 23.7 10.9 41 8.0 E 9 17 5 9 1014.5 - 0.0
23/01:00pm 24.2 22.8 10.8 43 7.5 ESE 9 13 5 7 1015.0 - 0.0
23/12:30pm 24.1 23.2 10.7 43 7.5 SE 6 15 3 8 1015.4 - 0.0
23/12:00pm 23.6 22.1 10.6 44 7.2 E 9 13 5 7 1015.9 1015.7 0.0
23/11:30am 23.2 22.5 11.3 47 6.7 NNE 6 9 3 5 1016.5 - 0.0
23/11:00am 22.1 20.9 10.3 47 6.5 NNW 7 13 4 7 1017.0 - 0.0
23/10:30am 21.1 19.4 9.7 48 6.2 NW 9 13 5 7 1017.1 - 0.0
23/10:00am 19.7 17.0 9.0 50 5.7 NNW 13 17 7 9 1017.3 - 0.0
23/09:30am 18.2 16.3 9.0 55 4.8 NNW 9 15 5 8 1017.4 - 0.0
23/09:00am 16.4 14.8 8.9 61 3.9 NNW 7 11 4 6 1017.6 1017.5 0.0
23/08:30am 16.3 13.6 9.0 62 3.8 NW 13 19 7 10 1017.5 - 0.0
23/08:00am 15.5 11.5 8.3 62 3.7 WNW 19 24 10 13 1017.3 - 0.0
23/07:30am 14.6 10.9 7.9 64 3.4 NW 17 22 9 12 1016.9 - 0.0
23/07:00am 14.2 9.8 7.5 64 3.3 WNW 20 24 11 13 1017.0 - 0.0
23/06:30am 13.9 10.1 7.4 65 3.2 WNW 17 22 9 12 1016.9 - 0.0
23/06:00am 14.0 10.2 7.5 65 3.2 WNW 17 20 9 11 1016.8 1016.7 0.0
23/05:30am 14.2 10.1 7.7 65 3.2 WNW 19 22 10 12 1016.8 - 0.0
23/05:00am 14.1 9.9 7.6 65 3.2 WNW 19 24 10 13 1016.7 - 0.0
23/04:30am 14.3 10.5 7.6 64 3.3 WNW 17 20 9 11 1016.5 - 0.0
23/04:00am 14.5 10.7 7.5 63 3.5 WNW 17 20 9 11 1016.3 - 0.0
23/03:30am 15.0 10.8 7.3 60 3.8 WNW 19 22 10 12 1016.2 - 0.0
23/03:00am 15.4 11.0 7.4 59 4.0 NW 20 28 11 15 1016.0 1015.8 0.0
23/02:30am 15.5 11.1 7.5 59 4.0 WNW 20 26 11 14 1016.1 - 0.0
23/02:00am 15.6 11.4 7.6 59 4.0 NW 19 24 10 13 1016.0 - 0.0
23/01:30am 15.6 11.3 7.9 60 3.9 NW 20 26 11 14 1016.3 - 0.0
23/01:00am 15.8 11.6 8.1 60 3.9 WNW 20 26 11 14 1016.5 - 0.0
23/12:30am 16.0 11.9 8.0 59 4.0 NW 19 22 10 12 1016.4 - 0.0
23/12:00am 16.3 12.0 8.0 58 4.2 WNW 20 24 11 13 1016.3 1016.1 0.0
 
Date/Time
EST
Tmp

°C
App
Tmp
°C
Dew
Point
°C
Rel
Hum
%
Delta-T

°C
Wind Press
QNH
hPa
Press
MSL
hPa
Rain
since
9 am
mm
Dir
 
Spd
km/h
Gust
km/h
Spd
kts
Gust
kts
22/11:30pm 16.8 12.5 8.0 56 4.5 WNW 20 30 11 16 1016.2 - 0.0
22/11:00pm 16.9 12.7 8.1 56 4.5 WNW 20 26 11 14 1016.3 - 0.0
22/10:30pm 17.2 13.2 8.1 55 4.7 NW 19 22 10 12 1016.4 - 0.0
22/10:00pm 17.5 13.8 7.8 53 4.9 NW 17 20 9 11 1016.4 - 0.0
22/09:30pm 18.0 13.9 7.7 51 5.3 WNW 19 22 10 12 1016.4 - 0.0
22/09:00pm 18.7 14.3 7.5 48 5.7 NW 20 28 11 15 1016.3 1016.1 0.0
22/08:30pm 19.1 14.7 7.2 46 6.1 WNW 20 26 11 14 1016.0 - 0.0
22/08:00pm 19.5 14.6 6.9 44 6.4 WNW 22 28 12 15 1015.9 - 0.0
22/07:30pm 19.9 15.1 7.3 44 6.5 WNW 22 30 12 16 1015.7 - 0.0
22/07:00pm 20.2 15.1 7.6 44 6.5 WNW 24 33 13 18 1015.3 - 0.0
22/06:30pm 20.5 15.1 7.8 44 6.6 WNW 26 35 14 19 1015.1 - 0.0
22/06:00pm 21.0 16.0 8.0 43 6.8 WNW 24 33 13 18 1014.8 1014.6 0.0

Latest Capital City Observations: Canberra | Sydney | Melbourne | Brisbane | Adelaide | Perth | Hobart | Darwin

Other Formats:

Comma delimited format used in spreadsheet applications
http://www.bom.gov.au/fwo/IDN60903/IDN60903.94750.axf

JavaScript Object Notation format (JSON) in row-major order
http://www.bom.gov.au/fwo/IDN60903/IDN60903.94750.json